Time;durP1;ratioP1;P1;durP2;ratioP2;P2;SDS_P1;SDS_P2;PMS_P1;PMS_P2;Temp;Humidity;BMP_temperature;BMP_pressure;BME280_temperature;BME280_humidity;BME280_pressure;Samples;Min_cycle;Max_cycle;Signal;HPM_P1;HPM_P2
2022/01/06 00:00:58;;;;;;;60.47;42.13;;;;;;;6.92;83.39;98794.94;5052407;28;20281;-57
2022/01/06 00:03:27;;;;;;;67.77;41.90;;;;;;;6.88;83.72;98796.56;5052191;28;20727;-58
2022/01/06 00:05:54;;;;;;;61.73;41.40;;;;;;;6.89;83.48;98802.56;5051969;28;20308;-57
2022/01/06 00:08:23;;;;;;;59.30;40.13;;;;;;;6.89;83.64;98810.22;5052313;28;20186;-58
2022/01/06 00:10:51;;;;;;;59.77;40.27;;;;;;;6.89;83.21;98822.97;5052106;28;20197;-58
2022/01/06 00:13:23;;;;;;;58.77;39.87;;;;;;;6.92;83.41;98818.78;5052349;28;20280;-58
2022/01/06 00:16:04;;;;;;;60.53;38.20;;;;;;;6.88;82.96;98822.09;5052071;28;20274;-57
2022/01/06 00:24:17;;;;;;;66.18;46.88;;;;;;;6.57;84.52;98835.06;5068749;28;20433;-57
2022/01/06 00:26:44;;;;;;;63.13;42.80;;;;;;;6.58;84.07;98841.03;5071326;28;20190;-57
2022/01/06 00:29:11;;;;;;;65.27;41.47;;;;;;;6.49;84.41;98837.47;5071136;28;20595;-57
2022/01/06 00:31:38;;;;;;;59.90;41.03;;;;;;;6.42;84.28;98843.28;5071646;28;20191;-58
2022/01/06 00:34:10;;;;;;;58.87;40.17;;;;;;;6.37;84.73;98841.44;5070814;28;20198;-57
2022/01/06 00:36:37;;;;;;;57.60;40.07;;;;;;;6.33;84.93;98832.84;5068817;28;20194;-58
2022/01/06 00:39:04;;;;;;;58.27;40.30;;;;;;;6.27;84.51;98824.19;5070969;28;20201;-58
2022/01/06 00:41:34;;;;;;;56.40;40.10;;;;;;;6.31;84.64;98831.97;5071219;28;20268;-58
2022/01/06 00:44:01;;;;;;;56.90;40.33;;;;;;;6.22;84.31;98834.31;5071388;28;20616;-57
2022/01/06 00:46:28;;;;;;;59.20;40.30;;;;;;;6.15;84.82;98819.69;5071538;28;20194;-57
2022/01/06 00:48:55;;;;;;;55.00;38.40;;;;;;;6.09;85.08;98817.00;5071594;28;20196;-57
2022/01/06 00:51:23;;;;;;;61.27;39.40;;;;;;;6.09;84.89;98824.66;5071407;28;20244;-57
2022/01/06 00:53:50;;;;;;;54.57;37.03;;;;;;;6.08;85.00;98825.47;5071401;28;20192;-58
2022/01/06 00:56:17;;;;;;;56.13;39.70;;;;;;;6.02;85.34;98822.78;5071038;28;20683;-58
2022/01/06 00:58:45;;;;;;;55.23;37.93;;;;;;;5.99;85.44;98816.75;5071439;28;20192;-58
2022/01/06 01:01:12;;;;;;;55.60;36.60;;;;;;;6.03;85.57;98806.66;5070971;28;20202;-58
2022/01/06 01:03:39;;;;;;;56.60;38.47;;;;;;;6.05;85.32;98802.44;5071050;28;20662;-56
2022/01/06 01:06:06;;;;;;;48.40;35.40;;;;;;;6.04;85.71;98798.19;5070764;28;20216;-57
2022/01/06 01:08:34;;;;;;;60.70;36.83;;;;;;;6.08;85.52;98792.31;5070604;28;20673;-57
2022/01/06 01:11:01;;;;;;;61.55;42.28;;;;;;;6.17;85.42;98797.63;5070140;28;20441;-58
2022/01/06 01:13:30;;;;;;;48.60;35.67;;;;;;;6.25;85.16;98791.00;5070834;28;20212;-57
2022/01/06 01:16:08;;;;;;;49.00;36.13;;;;;;;6.30;84.53;98799.63;5071027;28;20751;-58
2022/01/06 01:18:36;;;;;;;53.77;36.77;;;;;;;6.15;84.47;98789.09;5070907;28;20628;-57
2022/01/06 01:21:03;;;;;;;46.90;33.63;;;;;;;6.26;84.41;98794.44;5070404;28;20189;-57
2022/01/06 01:23:30;;;;;;;47.13;34.40;;;;;;;6.15;84.86;98799.31;5070617;28;20285;-57
2022/01/06 01:25:57;;;;;;;47.90;34.60;;;;;;;6.14;85.15;98791.59;5070394;28;20219;-57
2022/01/06 01:28:32;;;;;;;50.43;33.90;;;;;;;6.03;85.91;98790.50;5070763;28;20221;-57
2022/01/06 01:31:18;;;;;;;48.83;36.13;;;;;;;6.06;85.44;98786.34;5070626;28;20203;-57
2022/01/06 01:33:45;;;;;;;47.57;35.67;;;;;;;6.16;85.01;98775.50;5070582;28;20197;-57
2022/01/06 01:36:13;;;;;;;49.43;34.13;;;;;;;6.17;85.12;98779.78;5070638;28;20203;-57
2022/01/06 01:38:40;;;;;;;47.93;33.97;;;;;;;6.21;84.19;98790.91;5070725;28;20234;-57
2022/01/06 01:41:09;;;;;;;42.40;32.93;;;;;;;6.19;84.64;98785.78;5070816;28;20214;-57
2022/01/06 01:43:36;;;;;;;46.63;34.07;;;;;;;6.25;83.93;98778.25;5070713;28;20206;-57
2022/01/06 01:46:10;;;;;;;46.50;33.47;;;;;;;6.23;84.22;98782.47;5069719;28;20629;-57
2022/01/06 01:48:41;;;;;;;45.67;32.43;;;;;;;6.24;83.79;98784.19;5070691;28;20305;-57
2022/01/06 01:51:09;;;;;;;52.40;33.80;;;;;;;6.25;84.51;98785.91;5070851;28;20229;-57
2022/01/06 01:53:36;;;;;;;51.73;34.10;;;;;;;6.24;83.64;98773.97;5070240;28;20729;-57
2022/01/06 01:56:06;;;;;;;48.70;33.90;;;;;;;6.23;83.87;98774.81;5070344;28;20677;-57
2022/01/06 01:58:34;;;;;;;50.17;36.50;;;;;;;6.24;84.06;98778.22;5070370;28;20197;-57
2022/01/06 02:01:01;;;;;;;51.27;35.80;;;;;;;6.23;84.24;98779.94;5070261;28;20193;-57
2022/01/06 02:03:29;;;;;;;45.07;34.50;;;;;;;6.26;84.20;98785.06;5070084;28;20198;-58
2022/01/06 02:05:56;;;;;;;47.47;35.17;;;;;;;6.22;83.92;98782.41;5070000;28;20215;-57
2022/01/06 02:08:24;;;;;;;55.40;35.80;;;;;;;6.15;85.30;98778.91;5070584;28;20280;-57
2022/01/06 02:10:51;;;;;;;50.03;36.40;;;;;;;6.13;84.80;98784.75;5070139;28;20770;-57
2022/01/06 02:13:17;;;;;;;52.20;36.93;;;;;;;6.07;84.54;98780.38;5070119;28;20193;-57
2022/01/06 02:15:44;;;;;;;55.60;36.90;;;;;;;6.02;85.02;98783.66;5069916;28;20196;-57
2022/01/06 02:18:11;;;;;;;49.70;37.77;;;;;;;5.96;85.07;98781.84;5070147;28;20194;-57
2022/01/06 02:20:40;;;;;;;52.10;38.60;;;;;;;5.96;85.63;98786.09;5070427;28;20283;-57
2022/01/06 02:23:07;;;;;;;47.57;37.27;;;;;;;5.93;85.93;98792.00;5069950;28;20201;-58
2022/01/06 02:25:34;;;;;;;48.43;37.23;;;;;;;5.96;85.17;98792.03;5069885;28;20225;-58
2022/01/06 02:28:02;;;;;;;59.97;37.57;;;;;;;6.04;85.54;98788.00;5069955;28;20232;-58
2022/01/06 02:30:33;;;;;;;57.27;37.67;;;;;;;6.03;84.49;98798.16;5069842;28;20200;-58
2022/01/06 02:33:01;;;;;;;62.23;39.97;;;;;;;6.02;84.87;98798.97;5070160;28;20193;-57
2022/01/06 02:35:29;;;;;;;63.23;42.20;;;;;;;6.00;85.42;98796.38;5070163;28;20184;-57
2022/01/06 02:37:57;;;;;;;65.37;41.80;;;;;;;6.00;86.19;98796.38;5069997;28;20205;-58
2022/01/06 02:40:25;;;;;;;54.40;41.40;;;;;;;5.86;85.30;98780.78;5070088;28;20192;-57
2022/01/06 02:42:55;;;;;;;60.17;43.28;;;;;;;5.78;85.39;98773.75;5070106;28;20394;-58
2022/01/06 02:45:25;;;;;;;63.50;42.40;;;;;;;5.70;85.61;98781.22;5069756;28;20306;-58
2022/01/06 02:47:52;;;;;;;57.80;43.03;;;;;;;5.80;85.70;98789.91;5070221;28;20318;-57
2022/01/06 02:50:19;;;;;;;65.73;41.57;;;;;;;5.82;85.90;98784.03;5069739;28;20198;-57
2022/01/06 02:52:46;;;;;;;57.07;40.73;;;;;;;5.81;85.50;98776.38;5069913;28;20200;-57
2022/01/06 02:55:16;;;;;;;57.77;41.07;;;;;;;5.83;85.95;98767.06;5069867;28;20189;-58
2022/01/06 02:57:44;;;;;;;61.73;41.67;;;;;;;5.83;85.19;98774.72;5073253;28;20278;-58
2022/01/06 03:00:13;;;;;;;61.33;40.47;;;;;;;5.75;86.06;98776.22;5073641;28;20200;-58
2022/01/06 03:02:43;;;;;;;59.37;42.07;;;;;;;5.69;86.98;98771.84;5073327;28;20193;-58
2022/01/06 03:05:10;;;;;;;52.80;39.33;;;;;;;5.77;87.07;98783.06;5073470;28;20713;-58
2022/01/06 03:07:37;;;;;;;56.83;40.63;;;;;;;5.78;86.76;98783.94;5073373;28;20655;-58
2022/01/06 03:10:07;;;;;;;59.43;39.83;;;;;;;5.76;85.83;98798.34;5073239;28;20195;-58
2022/01/06 03:12:39;;;;;;;51.37;35.27;;;;;;;5.62;86.70;98777.63;5073183;28;20290;-58
2022/01/06 03:15:08;;;;;;;56.43;35.63;;;;;;;5.71;87.01;98794.81;5073254;28;20197;-58
2022/01/06 03:17:35;;;;;;;52.03;33.43;;;;;;;5.65;86.73;98793.00;5073191;28;20259;-58
2022/01/06 03:20:03;;;;;;;49.10;36.90;;;;;;;5.69;87.11;98791.34;5073043;28;20191;-58
2022/01/06 03:22:30;;;;;;;53.27;37.53;;;;;;;5.68;86.25;98797.28;5073083;28;20664;-58
2022/01/06 03:24:57;;;;;;;47.73;36.27;;;;;;;5.64;86.58;98792.94;5073096;28;20280;-58
2022/01/06 03:27:24;;;;;;;48.73;35.60;;;;;;;5.61;86.93;98800.50;5072891;28;20235;-57
2022/01/06 03:29:53;;;;;;;52.38;39.42;;;;;;;5.52;86.61;98796.03;5072752;28;20796;-58
2022/01/06 03:32:20;;;;;;;47.30;36.70;;;;;;;5.51;87.33;98812.16;5072818;28;20198;-58
2022/01/06 03:34:49;;;;;;;55.63;40.37;;;;;;;5.40;87.12;98812.72;5072842;28;20215;-58
2022/01/06 03:37:16;;;;;;;41.47;31.43;;;;;;;5.34;87.38;98823.59;5072834;28;20187;-58
2022/01/06 03:39:44;;;;;;;46.23;33.40;;;;;;;5.31;87.26;98823.53;5072792;28;20189;-58
2022/01/06 03:42:12;;;;;;;43.50;33.17;;;;;;;5.28;87.58;98809.03;5072839;28;20275;-57
2022/01/06 03:44:40;;;;;;;46.83;33.80;;;;;;;5.24;87.69;98825.06;5072431;28;20285;-57
2022/01/06 03:47:08;;;;;;;51.60;34.73;;;;;;;5.19;86.89;98818.13;5071934;28;20212;-57
2022/01/06 03:49:35;;;;;;;44.13;31.13;;;;;;;5.22;87.57;98821.59;5072597;28;20179;-57
2022/01/06 03:52:02;;;;;;;43.00;31.03;;;;;;;5.24;86.67;98826.75;5069559;28;20196;-58
2022/01/06 03:54:30;;;;;;;40.10;29.30;;;;;;;5.20;88.16;98835.97;5072171;28;20202;-57
2022/01/06 03:56:58;;;;;;;50.50;31.60;;;;;;;5.27;88.03;98829.38;5072543;28;20280;-58
2022/01/06 03:59:26;;;;;;;50.23;31.30;;;;;;;5.27;87.41;98827.66;5072710;28;20245;-58
2022/01/06 04:01:53;;;;;;;35.03;28.60;;;;;;;5.20;87.36;98825.78;5072489;28;20191;-57
2022/01/06 04:04:21;;;;;;;38.40;28.20;;;;;;;5.31;87.70;98824.38;5071625;28;20274;-57
2022/01/06 04:06:48;;;;;;;38.73;29.43;;;;;;;5.28;87.78;98831.06;5072529;28;20593;-58
2022/01/06 04:09:15;;;;;;;39.37;29.93;;;;;;;5.22;87.16;98813.09;5071492;28;20230;-57
2022/01/06 04:11:42;;;;;;;43.80;30.43;;;;;;;5.29;86.24;98830.28;5072178;28;20285;-58
2022/01/06 04:14:09;;;;;;;41.60;31.13;;;;;;;5.23;86.74;98828.44;5072172;28;20202;-58
2022/01/06 04:16:38;;;;;;;43.80;32.13;;;;;;;5.26;86.73;98838.69;5072174;28;20659;-58
2022/01/06 04:19:05;;;;;;;49.00;39.83;;;;;;;5.32;85.86;98835.44;5071188;28;20441;-58
2022/01/06 04:21:33;;;;;;;45.37;33.70;;;;;;;5.35;85.73;98840.63;5071968;28;20306;-58
2022/01/06 04:24:00;;;;;;;44.27;33.63;;;;;;;5.24;86.37;98837.81;5071826;28;20192;-58
2022/01/06 04:26:28;;;;;;;46.90;33.47;;;;;;;5.11;86.64;98804.34;5072181;28;20307;-58
2022/01/06 04:28:55;;;;;;;45.93;33.53;;;;;;;5.20;86.19;98846.16;5071906;28;20949;-58
2022/01/06 04:31:22;;;;;;;46.93;33.07;;;;;;;5.12;86.46;98834.03;5072241;28;20315;-58
2022/01/06 04:33:49;;;;;;;46.37;32.60;;;;;;;5.14;86.59;98840.03;5072125;28;20319;-58
2022/01/06 04:36:16;;;;;;;44.93;33.63;;;;;;;5.03;86.58;98849.06;5071883;28;21098;-58
2022/01/06 04:38:45;;;;;;;41.63;32.97;;;;;;;4.99;86.54;98844.72;5071679;28;20191;-58
2022/01/06 04:41:12;;;;;;;42.13;30.50;;;;;;;4.98;87.10;98850.63;5071434;28;20198;-58
2022/01/06 04:43:38;;;;;;;39.17;30.70;;;;;;;4.98;86.96;98845.53;5071287;28;20194;-58
2022/01/06 04:46:05;;;;;;;43.50;29.87;;;;;;;4.98;86.98;98841.31;5071312;28;20230;-58
2022/01/06 04:48:34;;;;;;;41.67;29.50;;;;;;;5.03;87.28;98849.06;5071176;28;20604;-56
2022/01/06 04:51:01;;;;;;;43.10;30.67;;;;;;;4.95;87.09;98842.91;5070803;28;20222;-57
2022/01/06 04:53:28;;;;;;;43.70;35.20;;;;;;;4.97;88.09;98843.81;5068088;28;20434;-57
2022/01/06 04:55:59;;;;;;;36.77;27.83;;;;;;;4.98;87.24;98838.75;5071000;28;20175;-57
2022/01/06 04:58:26;;;;;;;47.23;28.60;;;;;;;4.96;87.08;98831.91;5068583;28;20237;-57
2022/01/06 05:00:53;;;;;;;33.10;27.17;;;;;;;4.90;85.56;98824.09;5070448;28;20192;-58
2022/01/06 05:03:20;;;;;;;36.27;27.10;;;;;;;4.86;85.96;98842.66;5069692;28;20796;-57
2022/01/06 05:05:47;;;;;;;33.13;26.57;;;;;;;4.85;85.70;98844.34;5068948;28;20288;-57
2022/01/06 05:08:14;;;;;;;36.87;28.73;;;;;;;4.86;86.05;98846.09;5070828;28;20196;-57
2022/01/06 05:10:41;;;;;;;32.83;26.37;;;;;;;4.89;86.01;98855.47;5070940;28;20206;-57
2022/01/06 05:13:09;;;;;;;37.47;29.00;;;;;;;4.91;86.37;98854.69;5070962;28;20210;-57
2022/01/06 05:15:36;;;;;;;36.70;26.70;;;;;;;4.93;86.25;98854.72;5070924;28;20274;-57
2022/01/06 05:18:03;;;;;;;36.90;27.60;;;;;;;4.88;86.17;98861.38;5050721;28;20666;-57
2022/01/06 05:20:30;;;;;;;36.63;26.53;;;;;;;4.88;85.56;98861.38;5060341;28;20286;-57
2022/01/06 05:22:58;;;;;;;36.60;27.70;;;;;;;4.90;85.35;98865.69;5070560;28;20200;-57
2022/01/06 05:25:27;;;;;;;34.47;26.93;;;;;;;4.87;85.12;98864.72;5053575;28;20287;-57
2022/01/06 05:27:54;;;;;;;37.90;27.43;;;;;;;4.86;84.94;98863.03;5050508;28;20259;-57
2022/01/06 05:30:23;;;;;;;32.10;25.03;;;;;;;4.81;85.44;98870.50;5050686;28;20300;-57
2022/01/06 05:32:50;;;;;;;32.57;23.63;;;;;;;4.78;84.68;98869.59;5050512;28;20192;-59
2022/01/06 05:35:17;;;;;;;30.37;22.00;;;;;;;4.68;85.24;98879.47;5050446;28;20209;-57
2022/01/06 05:37:44;;;;;;;30.00;22.87;;;;;;;4.66;85.75;98881.13;5050615;28;20188;-57
2022/01/06 05:40:12;;;;;;;35.20;22.67;;;;;;;4.62;86.30;98886.06;5052581;28;20203;-58
2022/01/06 05:42:39;;;;;;;30.37;22.13;;;;;;;4.65;85.95;98886.16;5070214;28;20196;-58
2022/01/06 05:45:07;;;;;;;27.63;20.13;;;;;;;4.67;85.79;98881.97;5070604;28;20278;-58
2022/01/06 05:47:36;;;;;;;25.53;20.53;;;;;;;4.47;86.07;98850.88;5070249;28;20224;-58
2022/01/06 05:50:04;;;;;;;36.77;22.93;;;;;;;4.70;84.86;98888.00;5070107;28;20282;-57
2022/01/06 05:52:31;;;;;;;26.73;21.60;;;;;;;4.69;85.53;98890.53;5070544;28;20436;-58
2022/01/06 05:54:58;;;;;;;31.10;20.60;;;;;;;4.71;85.57;98892.28;5070169;28;20678;-58
2022/01/06 05:57:25;;;;;;;28.10;19.97;;;;;;;4.74;86.27;98889.84;5070720;28;20270;-57
2022/01/06 05:59:52;;;;;;;27.10;21.00;;;;;;;4.80;85.76;98894.25;5070153;28;20191;-58
2022/01/06 06:02:19;;;;;;;31.33;21.53;;;;;;;4.86;86.14;98883.38;5069710;28;20291;-58
2022/01/06 06:04:47;;;;;;;30.80;21.73;;;;;;;4.91;86.03;98887.78;5070015;28;20699;-58
2022/01/06 06:07:14;;;;;;;30.23;21.60;;;;;;;5.01;86.05;98891.44;5069444;28;20219;-57
2022/01/06 06:09:41;;;;;;;28.63;22.77;;;;;;;5.10;85.38;98889.16;5069696;28;20278;-57
2022/01/06 06:12:09;;;;;;;32.70;22.80;;;;;;;5.16;84.65;98895.28;5069713;28;20742;-57
2022/01/06 06:14:36;;;;;;;33.07;22.87;;;;;;;5.23;85.13;98897.19;5070040;28;20769;-57
2022/01/06 06:17:03;;;;;;;30.63;22.70;;;;;;;5.16;84.60;98881.69;5069891;28;20191;-57
2022/01/06 06:19:30;;;;;;;29.13;24.53;;;;;;;5.28;84.05;98903.25;5069659;28;20200;-57
2022/01/06 06:21:58;;;;;;;32.83;24.80;;;;;;;5.28;83.49;98902.38;5069698;28;20195;-57
2022/01/06 06:24:25;;;;;;;38.03;23.90;;;;;;;5.30;83.81;98903.31;5070104;28;20318;-57
2022/01/06 06:26:52;;;;;;;34.63;24.27;;;;;;;5.38;83.80;98903.50;5069401;28;20227;-57
2022/01/06 06:29:19;;;;;;;35.50;23.47;;;;;;;5.47;84.11;98906.28;5070058;28;20187;-58
2022/01/06 06:31:47;;;;;;;36.60;23.43;;;;;;;5.47;82.94;98891.00;5071104;28;20195;-58
2022/01/06 06:34:14;;;;;;;29.97;23.50;;;;;;;5.50;83.20;98897.03;5073578;28;20191;-58
2022/01/06 06:36:41;;;;;;;28.87;22.60;;;;;;;5.49;83.32;98902.97;5073729;28;20204;-58
2022/01/06 06:39:09;;;;;;;32.03;23.80;;;;;;;5.50;82.96;98896.19;5073338;28;20551;-58
2022/01/06 06:41:36;;;;;;;34.60;23.67;;;;;;;5.51;83.21;98896.25;5073550;28;20193;-57
2022/01/06 06:44:04;;;;;;;30.33;23.17;;;;;;;5.46;82.00;98886.75;5074400;28;20282;-58
2022/01/06 06:46:30;;;;;;;33.23;22.50;;;;;;;5.57;82.44;98904.06;5073056;28;20213;-58
2022/01/06 06:48:57;;;;;;;28.63;21.67;;;;;;;5.62;83.10;98904.16;5073404;28;20196;-57
2022/01/06 06:51:24;;;;;;;27.70;21.17;;;;;;;5.73;82.45;98895.09;5072183;28;20286;-58
2022/01/06 06:53:51;;;;;;;32.03;21.70;;;;;;;5.82;81.75;98911.47;5071785;28;20727;-58
2022/01/06 06:56:20;;;;;;;30.80;21.50;;;;;;;5.85;82.45;98909.03;5072419;28;20195;-58
2022/01/06 06:58:47;;;;;;;26.07;20.23;;;;;;;5.87;81.69;98915.06;5072756;28;20283;-58
2022/01/06 07:01:14;;;;;;;26.83;20.90;;;;;;;5.96;80.92;98919.50;5069351;28;20202;-58
2022/01/06 07:03:41;;;;;;;27.90;19.90;;;;;;;6.02;80.49;98921.34;5053085;28;20201;-58
2022/01/06 07:06:08;;;;;;;26.63;20.27;;;;;;;6.08;79.91;98924.06;5052530;28;20196;-58
2022/01/06 07:08:35;;;;;;;26.47;19.17;;;;;;;6.15;79.49;98925.94;5059823;28;20280;-59
2022/01/06 07:11:02;;;;;;;29.87;21.47;;;;;;;6.20;79.95;98929.47;5072814;28;20322;-58
2022/01/06 07:13:30;;;;;;;29.70;22.43;;;;;;;6.28;80.44;98931.38;5072921;28;20612;-58
2022/01/06 07:15:57;;;;;;;32.47;22.80;;;;;;;6.37;79.66;98923.91;5072369;28;20532;-57
2022/01/06 07:18:24;;;;;;;27.50;21.13;;;;;;;6.38;78.84;98929.88;5071811;28;20245;-58
2022/01/06 07:20:51;;;;;;;28.33;21.17;;;;;;;6.39;79.51;98931.63;5071885;28;20276;-58
2022/01/06 07:23:18;;;;;;;32.07;22.27;;;;;;;6.47;78.26;98940.31;5069766;28;20677;-58
2022/01/06 07:25:45;;;;;;;32.50;21.77;;;;;;;6.52;77.74;98937.03;5072512;28;20280;-59
2022/01/06 07:28:12;;;;;;;30.20;24.92;;;;;;;6.63;78.10;98944.06;5071674;28;20536;-58
2022/01/06 07:30:40;;;;;;;31.83;21.53;;;;;;;6.72;77.45;98946.84;5072560;28;20197;-57
2022/01/06 07:33:07;;;;;;;26.47;20.97;;;;;;;6.83;76.98;98951.38;5072067;28;20190;-57
2022/01/06 07:35:34;;;;;;;30.63;22.27;;;;;;;6.93;76.48;98945.63;5072318;28;20178;-58
2022/01/06 07:38:01;;;;;;;34.27;21.47;;;;;;;7.02;76.59;98957.72;5072370;28;20198;-57
2022/01/06 07:40:28;;;;;;;25.93;21.40;;;;;;;7.06;76.10;98962.06;5072803;28;20283;-57
2022/01/06 07:42:55;;;;;;;29.30;22.20;;;;;;;7.08;75.64;98962.97;5070692;28;20198;-58
2022/01/06 07:45:22;;;;;;;32.40;22.87;;;;;;;7.12;75.27;98957.09;5072624;28;20217;-58
2022/01/06 07:47:57;;;;;;;29.87;22.77;;;;;;;7.06;75.73;98950.16;5071978;28;20689;-59
2022/01/06 07:50:26;;;;;;;29.60;23.70;;;;;;;7.10;75.09;98958.75;5071897;28;20194;-58
2022/01/06 07:52:52;;;;;;;32.93;22.90;;;;;;;7.12;74.61;98954.53;5066054;28;20204;-59
2022/01/06 07:55:19;;;;;;;32.57;26.57;;;;;;;7.19;75.01;98961.50;5055605;28;20530;-58
2022/01/06 07:57:46;;;;;;;31.00;23.30;;;;;;;7.31;74.82;98945.53;5052369;28;20180;-58
2022/01/06 08:00:14;;;;;;;30.27;22.57;;;;;;;7.16;74.35;98920.56;5052161;28;20274;-58
2022/01/06 08:02:41;;;;;;;33.33;22.97;;;;;;;7.36;73.86;98952.47;5067352;28;20388;-58
2022/01/06 08:05:12;;;;;;;31.37;22.93;;;;;;;7.47;73.92;98961.22;5072204;28;20735;-58
2022/01/06 08:07:39;;;;;;;34.90;23.83;;;;;;;7.56;73.64;98955.44;5072127;28;20777;-58
2022/01/06 08:10:08;;;;;;;32.77;23.97;;;;;;;7.67;73.85;98948.81;5071403;28;20650;-58
2022/01/06 08:12:36;;;;;;;27.50;23.07;;;;;;;7.75;73.61;98954.09;5071633;28;20205;-58
2022/01/06 08:15:04;;;;;;;35.63;26.87;;;;;;;7.82;73.18;98961.03;5071335;28;20195;-58
2022/01/06 08:17:31;;;;;;;37.10;26.57;;;;;;;7.88;72.89;98945.81;5071187;28;20276;-58
2022/01/06 08:19:58;;;;;;;35.07;26.07;;;;;;;8.00;72.68;98954.56;5071453;28;20185;-58
2022/01/06 08:22:26;;;;;;;31.67;24.50;;;;;;;8.10;72.36;98964.09;5071359;28;20191;-58
2022/01/06 08:24:53;;;;;;;33.37;23.87;;;;;;;8.00;72.17;98957.13;5071296;28;20225;-58
2022/01/06 08:27:23;;;;;;;30.93;23.97;;;;;;;8.03;71.87;98954.59;5060197;28;20239;-59
2022/01/06 08:29:52;;;;;;;30.03;23.27;;;;;;;8.14;71.72;98963.34;5063104;28;20233;-58
2022/01/06 08:32:19;;;;;;;35.83;25.20;;;;;;;8.13;71.75;98956.47;5068807;28;20527;-58
2022/01/06 08:34:46;;;;;;;34.40;25.47;;;;;;;8.21;71.77;98960.03;5071560;28;20198;-59
2022/01/06 08:37:13;;;;;;;33.03;25.07;;;;;;;8.29;71.66;98955.09;5071518;28;20187;-58
2022/01/06 08:39:41;;;;;;;32.07;25.23;;;;;;;8.36;71.65;98969.69;5071359;28;20214;-58
2022/01/06 08:42:11;;;;;;;35.53;24.20;;;;;;;8.44;71.45;98964.69;5071225;28;20633;-59
2022/01/06 08:44:39;;;;;;;38.80;23.77;;;;;;;8.50;70.93;98973.34;5070303;28;20191;-58
2022/01/06 08:47:06;;;;;;;35.23;24.40;;;;;;;8.63;70.83;98972.69;5070223;28;20605;-59
2022/01/06 08:49:34;;;;;;;29.33;22.90;;;;;;;8.73;70.13;98978.84;5070454;28;20213;-59
2022/01/06 08:52:01;;;;;;;32.95;24.73;;;;;;;8.72;70.09;98975.41;5069707;28;20465;-59
2022/01/06 08:54:28;;;;;;;34.73;25.50;;;;;;;8.88;69.52;98989.28;5069872;28;20193;-57
2022/01/06 08:56:56;;;;;;;32.23;23.57;;;;;;;8.83;69.50;98980.69;5067481;28;20665;-58
2022/01/06 08:59:23;;;;;;;35.73;25.60;;;;;;;8.88;69.71;98985.03;5070538;28;20297;-58
2022/01/06 09:01:50;;;;;;;34.70;25.73;;;;;;;8.92;69.90;98977.41;5070398;28;20197;-58
2022/01/06 09:04:20;;;;;;;35.60;26.33;;;;;;;8.99;69.59;98976.63;5069925;28;20636;-58
2022/01/06 09:06:48;;;;;;;31.93;25.47;;;;;;;9.16;69.81;98983.72;5066950;28;20195;-58
2022/01/06 09:09:15;;;;;;;33.33;24.17;;;;;;;9.30;68.78;98984.78;5068233;28;20199;-59
2022/01/06 09:11:42;;;;;;;34.53;24.57;;;;;;;9.27;68.21;98958.22;5049201;28;20564;-57
2022/01/06 09:14:11;;;;;;;33.27;25.20;;;;;;;9.50;67.91;98982.47;5062158;28;20663;-58
2022/01/06 09:16:38;;;;;;;40.13;27.37;;;;;;;9.49;67.66;98980.72;5069723;28;20184;-58
2022/01/06 09:19:05;;;;;;;40.93;28.00;;;;;;;9.43;68.19;98970.38;5069978;28;20191;-58
2022/01/06 09:21:32;;;;;;;34.07;26.40;;;;;;;9.35;68.60;98977.13;5070049;28;20701;-58
2022/01/06 09:24:01;;;;;;;35.43;26.40;;;;;;;9.33;68.67;98974.56;5070250;28;20668;-58
2022/01/06 09:26:29;;;;;;;32.73;23.20;;;;;;;9.32;68.80;98985.66;5067890;28;20226;-58
2022/01/06 09:28:55;;;;;;;35.20;24.27;;;;;;;9.39;68.69;98979.75;5069823;28;20235;-58
2022/01/06 09:31:24;;;;;;;31.47;21.80;;;;;;;9.52;68.22;98985.91;5070083;28;20210;-57
2022/01/06 09:33:52;;;;;;;34.23;22.23;;;;;;;9.66;67.99;98981.78;5070194;28;20286;-57
2022/01/06 09:36:19;;;;;;;31.47;24.33;;;;;;;9.81;67.65;98978.53;5070006;28;20195;-57
2022/01/06 09:38:46;;;;;;;33.53;24.50;;;;;;;9.91;67.46;98973.53;5069769;28;20297;-57
2022/01/06 09:41:14;;;;;;;37.73;24.70;;;;;;;10.00;66.64;98965.91;5069820;28;20343;-58
2022/01/06 09:43:43;;;;;;;38.43;25.53;;;;;;;10.17;66.44;98966.09;5069910;28;20659;-58
2022/01/06 09:46:10;;;;;;;33.67;25.87;;;;;;;10.23;65.95;98961.03;5069825;28;20206;-58
2022/01/06 09:48:40;;;;;;;34.80;24.83;;;;;;;10.38;66.03;98955.16;5069492;28;20225;-58
2022/01/06 09:51:10;;;;;;;35.07;24.57;;;;;;;10.53;65.11;98952.72;5069956;28;20701;-58
2022/01/06 09:53:37;;;;;;;25.97;22.00;;;;;;;10.71;64.96;98949.44;5069155;28;20215;-58
2022/01/06 09:56:04;;;;;;;30.63;23.80;;;;;;;10.70;63.90;98938.28;5067033;28;20192;-58
2022/01/06 09:58:31;;;;;;;27.83;22.00;;;;;;;10.91;63.87;98950.41;5066945;28;20488;-58
2022/01/06 10:00:59;;;;;;;32.20;23.73;;;;;;;11.03;64.10;98945.34;5066964;28;20191;-57
2022/01/06 10:03:37;;;;;;;25.23;22.00;;;;;;;11.06;63.09;98924.78;5067530;28;20202;-58
2022/01/06 10:06:13;;;;;;;25.60;21.23;;;;;;;11.32;62.83;98945.50;5066959;28;20202;-58
2022/01/06 10:08:40;;;;;;;25.30;21.07;;;;;;;11.23;62.78;98944.56;5068010;28;20211;-58
2022/01/06 10:11:12;;;;;;;36.17;21.73;;;;;;;11.15;62.50;98942.84;5068501;28;20194;-58
2022/01/06 10:13:40;;;;;;;27.43;21.43;;;;;;;11.22;63.01;98942.00;5069074;28;20625;-59
2022/01/06 10:16:17;;;;;;;31.27;22.87;;;;;;;11.33;62.71;98942.06;5069355;28;20776;-57
2022/01/06 10:18:58;;;;;;;26.20;19.13;;;;;;;11.25;62.42;98942.91;5069054;28;20186;-58
2022/01/06 10:21:31;;;;;;;28.57;19.30;;;;;;;11.41;62.77;98938.66;5069447;28;20281;-57
2022/01/06 10:24:03;;;;;;;25.33;19.40;;;;;;;11.56;61.90;98932.72;5069329;28;20202;-58
2022/01/06 10:26:30;;;;;;;25.40;19.17;;;;;;;11.65;61.23;98925.00;5069265;28;20659;-58
2022/01/06 10:28:57;;;;;;;24.97;18.67;;;;;;;11.63;61.39;98934.44;5069141;28;20227;-58
2022/01/06 10:31:26;;;;;;;21.90;17.27;;;;;;;11.56;61.77;98930.16;5069384;28;20285;-58
2022/01/06 10:33:53;;;;;;;28.57;18.67;;;;;;;11.49;62.08;98936.97;5069278;28;20201;-58
2022/01/06 10:36:31;;;;;;;25.27;18.30;;;;;;;11.51;61.39;98924.97;5068940;28;20559;-58
2022/01/06 10:38:59;;;;;;;30.10;18.93;;;;;;;11.38;62.11;98932.63;5069221;28;20192;-59
2022/01/06 10:41:28;;;;;;;26.60;19.40;;;;;;;11.33;62.19;98931.75;5069152;28;20198;-58
2022/01/06 10:43:56;;;;;;;26.33;19.67;;;;;;;11.47;62.11;98925.84;5069026;28;20203;-58
2022/01/06 10:46:31;;;;;;;29.93;20.83;;;;;;;11.21;62.37;98930.00;5069132;28;20195;-58
2022/01/06 10:48:59;;;;;;;30.83;21.83;;;;;;;11.18;62.83;98930.84;5069315;28;20341;-58
2022/01/06 10:51:40;;;;;;;28.63;20.97;;;;;;;11.27;63.28;98936.03;5069028;28;20191;-59
2022/01/06 10:54:13;;;;;;;31.93;23.57;;;;;;;11.34;63.04;98925.78;5069088;28;20195;-58
2022/01/06 10:56:40;;;;;;;37.37;24.67;;;;;;;11.43;63.18;98918.94;5069262;28;20191;-57
2022/01/06 10:59:07;;;;;;;32.07;23.57;;;;;;;11.35;62.84;98906.91;5068734;28;20668;-58
2022/01/06 11:01:35;;;;;;;37.93;25.13;;;;;;;11.36;63.02;98932.66;5068840;28;20278;-58
2022/01/06 11:04:03;;;;;;;32.83;24.83;;;;;;;11.40;62.93;98921.50;5068897;28;20218;-58
2022/01/06 11:06:31;;;;;;;32.07;23.70;;;;;;;11.43;62.86;98918.06;5068837;28;20603;-58
2022/01/06 11:09:00;;;;;;;34.60;25.98;;;;;;;11.46;62.65;98911.25;5068481;28;20450;-58
2022/01/06 11:11:42;;;;;;;33.90;25.50;;;;;;;11.53;62.74;98915.56;5068859;28;20199;-59
2022/01/06 11:14:15;;;;;;;33.13;24.77;;;;;;;11.58;63.18;98907.84;5068847;28;20211;-58
2022/01/06 11:16:44;;;;;;;32.80;24.90;;;;;;;11.47;63.33;98904.38;5068766;28;20188;-58
2022/01/06 11:19:12;;;;;;;33.23;23.53;;;;;;;11.57;62.22;98899.28;5072149;28;20187;-58
2022/01/06 11:21:42;;;;;;;33.43;23.93;;;;;;;11.80;61.78;98904.50;5072061;28;20195;-57
2022/01/06 11:24:15;;;;;;;35.93;26.80;;;;;;;11.81;62.02;98883.91;5072243;28;20256;-58
2022/01/06 11:26:44;;;;;;;36.83;25.50;;;;;;;12.08;61.73;98898.53;5072359;28;20275;-58
2022/01/06 11:29:12;;;;;;;33.17;25.97;;;;;;;12.28;61.43;98895.94;5072113;28;20715;-57
2022/01/06 11:31:42;;;;;;;37.87;25.07;;;;;;;12.07;60.17;98858.19;5071977;28;20198;-58
2022/01/06 11:34:14;;;;;;;32.37;24.07;;;;;;;12.26;60.71;98908.84;5072613;28;20187;-57